Chicago, Illinois
Traffic Map
Current Weather Conditions
Chicago, Illinois
Overcast
Overcast
63°
Feels Like: 63°
Wind Chill: 63° Ceiling: 1300
Heat Index: 63° Visibility: 10mi
Dew Point: 60° Wind: 10mph
Humidity: 90% Direction: 20° (NNE)
Pressure: 29.72in Gusts: 0mph
Raw Report DataKMDW 222153Z 02009KT 10SM FEW010 OVC013 17/16 A2972 RMK AO2 DZB01E35 SLP060 P0000 T01720156
Traffic Incident Summary
Active as of:
Severity:
Category:
InformationThere was an issue retrieving the traffic information for this location. Please try a different location or try again shortly.
Advertisements